Terminal Aerodrome Forecast
Issued by NWS Portland, OR

Home | Current Version | Previous Version | Text Only | Print | Product List | Glossary On
Versions: 1 2 3 4 5 6 7 8 9 10 11 12 13 14 15 16 17 18 19 20 21 22 23 24 25 26 27 28 29 30 31 32
000
FTUS46 KPQR 022320
TAFSLE
TAF
KSLE 022320Z 0300/0324 18012KT P6SM VCSH SCT035 OVC050
     FM030400 18007KT P6SM VCSH BKN015 OVC025
     FM030900 18005KT P6SM -DZ BKN015 OVC025
     FM031200 19004KT 4SM BR SCT007 OVC015
     FM032010 20006KT P6SM OVC050=

USA.gov is the U.S. government's official web portal to all federal, state and local government web resources and services.